Time;durP1;ratioP1;P1;durP2;ratioP2;P2;SDS_P1;SDS_P2;PMS_P1;PMS_P2;Temp;Humidity;BMP_temperature;BMP_pressure;BME280_temperature;BME280_humidity;BME280_pressure;Samples;Min_cycle;Max_cycle;Signal;HPM_P1;HPM_P2
2023/12/23 00:01:25;;;;;;;16.80;3.67;;;;;;;0.97;100.00;99527.00;7368868;19;20419;-43
2023/12/23 00:03:55;;;;;;;10.60;1.97;;;;;;;0.96;100.00;99530.31;7391737;19;20403;-39
2023/12/23 00:06:27;;;;;;;13.83;2.20;;;;;;;0.99;100.00;99534.72;7370427;19;20467;-37
2023/12/23 00:08:57;;;;;;;9.93;1.80;;;;;;;1.02;100.00;99551.00;7390614;19;20490;-44
2023/12/23 00:11:27;;;;;;;11.90;1.83;;;;;;;1.02;100.00;99547.63;7367456;19;20402;-40
2023/12/23 00:13:56;;;;;;;7.80;2.00;;;;;;;1.08;100.00;99559.00;7391525;19;20758;-39
2023/12/23 00:16:30;;;;;;;7.97;1.87;;;;;;;1.10;100.00;99555.69;7369441;19;20742;-39
2023/12/23 00:19:00;;;;;;;10.67;3.70;;;;;;;1.03;100.00;99557.00;7389919;19;20450;-39
2023/12/23 00:21:30;;;;;;;11.07;3.50;;;;;;;1.10;100.00;99561.66;7367614;19;20438;-42
2023/12/23 00:23:59;;;;;;;6.40;1.30;;;;;;;1.08;100.00;99558.16;7393088;19;20441;-37
2023/12/23 00:26:29;;;;;;;7.83;1.90;;;;;;;1.09;100.00;99562.44;7369093;19;20399;-39
2023/12/23 00:28:59;;;;;;;33.00;8.70;;;;;;;1.15;100.00;99560.28;7390598;19;21406;-37
2023/12/23 00:31:31;;;;;;;9.40;2.10;;;;;;;1.15;100.00;99565.34;7368216;19;20411;-40
2023/12/23 00:34:01;;;;;;;9.63;1.50;;;;;;;1.11;100.00;99580.28;7392667;19;20414;-38
2023/12/23 00:36:30;;;;;;;17.83;6.03;;;;;;;1.14;100.00;99585.56;7367786;19;20413;-37
2023/12/23 00:39:00;;;;;;;8.40;1.20;;;;;;;1.10;100.00;99589.59;7393667;19;20549;-39
2023/12/23 00:41:30;;;;;;;7.73;1.10;;;;;;;1.13;100.00;99596.53;7375701;19;20415;-38
2023/12/23 00:43:59;;;;;;;14.00;2.53;;;;;;;1.10;100.00;99601.41;7397259;19;21111;-37
2023/12/23 00:46:31;;;;;;;5.97;1.47;;;;;;;1.00;100.00;99612.69;7373439;19;20395;-37
2023/12/23 00:49:01;;;;;;;8.23;1.87;;;;;;;1.03;100.00;99623.03;7397522;19;20437;-37
2023/12/23 00:51:31;;;;;;;7.70;1.20;;;;;;;0.98;100.00;99626.94;7376978;19;20920;-37
2023/12/23 00:54:00;;;;;;;14.00;1.10;;;;;;;1.00;100.00;99631.34;7397424;19;20414;-39
2023/12/23 00:56:30;;;;;;;8.43;1.13;;;;;;;1.07;100.00;99632.59;7375381;19;20433;-38
2023/12/23 00:58:59;;;;;;;9.60;1.80;;;;;;;0.99;100.00;99634.69;7398351;19;20437;-37
2023/12/23 01:01:32;;;;;;;18.30;3.33;;;;;;;0.98;100.00;99626.94;7375991;19;20411;-37
2023/12/23 01:04:01;;;;;;;11.10;1.47;;;;;;;0.99;100.00;99629.59;7398634;19;20379;-37
2023/12/23 01:06:31;;;;;;;9.47;1.10;;;;;;;0.92;100.00;99627.47;7373838;19;20412;-37
2023/12/23 01:09:01;;;;;;;6.63;1.50;;;;;;;0.91;100.00;99629.13;7397866;19;20426;-37
2023/12/23 01:11:30;;;;;;;13.10;1.40;;;;;;;0.90;100.00;99629.00;7374479;19;20976;-41
2023/12/23 01:14:00;;;;;;;11.07;3.17;;;;;;;0.86;100.00;99635.56;7396835;19;20414;-37
2023/12/23 01:16:32;;;;;;;12.52;2.28;;;;;;;0.93;100.00;99625.00;7374248;19;20454;-37
2023/12/23 01:19:02;;;;;;;10.20;1.93;;;;;;;0.92;100.00;99627.47;7395533;19;20179;-39
2023/12/23 01:21:33;;;;;;;36.23;9.73;;;;;;;0.96;100.00;99628.53;7373958;19;20399;-37
2023/12/23 01:24:02;;;;;;;4.27;1.03;;;;;;;0.90;100.00;99627.34;7396441;19;20523;-38
2023/12/23 01:26:32;;;;;;;18.70;4.07;;;;;;;0.94;100.00;99636.91;7375559;19;20409;-37
2023/12/23 01:29:02;;;;;;;12.20;3.17;;;;;;;0.88;100.00;99639.06;7395398;19;20431;-37
2023/12/23 01:31:35;;;;;;;11.37;2.03;;;;;;;0.83;100.00;99650.63;7375619;19;20394;-37
2023/12/23 01:34:04;;;;;;;10.83;2.03;;;;;;;0.88;100.00;99645.81;7395924;19;21052;-36
2023/12/23 01:36:34;;;;;;;4.80;1.03;;;;;;;0.83;100.00;99654.81;7373168;19;20972;-38
2023/12/23 01:39:04;;;;;;;7.10;1.30;;;;;;;0.78;100.00;99649.44;7394149;19;20506;-40
2023/12/23 01:41:33;;;;;;;6.80;2.20;;;;;;;0.78;100.00;99654.53;7372783;19;20458;-38
2023/12/23 01:44:03;;;;;;;11.10;2.13;;;;;;;0.73;100.00;99659.31;7393006;19;20383;-37
2023/12/23 01:46:35;;;;;;;11.80;3.40;;;;;;;0.73;100.00;99661.84;7369710;19;20414;-36
2023/12/23 01:49:05;;;;;;;9.77;2.50;;;;;;;0.81;100.00;99664.88;7391182;19;20174;-36
2023/12/23 01:51:35;;;;;;;13.23;3.30;;;;;;;0.74;100.00;99668.69;7371559;19;20395;-36
2023/12/23 01:54:07;;;;;;;77.57;23.03;;;;;;;0.83;100.00;99649.72;7392919;19;21034;-36
2023/12/23 01:56:37;;;;;;;8.80;1.30;;;;;;;0.88;100.00;99651.75;7371045;19;20787;-37
2023/12/23 01:59:04;;;;;;;12.55;2.10;;;;;;;1.03;100.00;99653.53;7396099;19;20443;-36
2023/12/23 02:01:37;;;;;;;16.77;2.30;;;;;;;1.08;100.00;99644.53;7368568;19;20218;-36
2023/12/23 02:04:07;;;;;;;11.65;1.63;;;;;;;1.10;100.00;99642.97;7394434;19;20411;-36
2023/12/23 02:06:37;;;;;;;13.50;3.47;;;;;;;1.15;100.00;99630.53;7371292;19;20262;-39
2023/12/23 02:09:07;;;;;;;19.10;4.07;;;;;;;1.19;100.00;99628.25;7391473;19;20406;-37
2023/12/23 02:11:44;;;;;;;10.30;1.67;;;;;;;1.17;100.00;99634.03;7371437;19;20454;-37
2023/12/23 02:14:20;;;;;;;35.63;9.63;;;;;;;1.23;100.00;99631.00;7392442;19;20399;-38
2023/12/23 02:16:53;;;;;;;8.57;1.67;;;;;;;1.23;100.00;99642.03;7373276;19;20494;-36
2023/12/23 02:19:22;;;;;;;17.57;5.57;;;;;;;1.34;100.00;99622.38;7391982;19;20407;-38
2023/12/23 02:21:54;;;;;;;9.83;2.10;;;;;;;1.23;100.00;99625.94;7371073;19;20796;-37
2023/12/23 02:24:24;;;;;;;7.30;1.13;;;;;;;1.21;100.00;99626.72;7394135;19;20451;-36
2023/12/23 02:26:58;;;;;;;19.23;5.17;;;;;;;1.31;100.00;99653.56;7370387;19;20486;-37
2023/12/23 02:29:28;;;;;;;6.53;1.97;;;;;;;1.24;100.00;99643.81;7391877;19;20824;-38
2023/12/23 02:31:59;;;;;;;2.87;0.70;;;;;;;1.19;100.00;99632.50;7370440;19;20431;-39
2023/12/23 02:34:30;;;;;;;4.17;0.63;;;;;;;1.13;100.00;99627.03;7391684;19;20371;-37
2023/12/23 02:37:02;;;;;;;2.90;1.13;;;;;;;1.05;100.00;99619.81;7372102;19;21042;-38
2023/12/23 02:39:31;;;;;;;11.20;3.50;;;;;;;1.05;100.00;99603.69;7394771;19;20518;-38
2023/12/23 02:42:01;;;;;;;7.23;1.23;;;;;;;1.13;100.00;99583.81;7368507;19;20454;-42
2023/12/23 02:44:31;;;;;;;21.13;6.73;;;;;;;1.08;100.00;99579.34;7395542;19;20782;-37
2023/12/23 02:47:00;;;;;;;16.17;4.57;;;;;;;1.05;100.00;99578.28;7370050;19;20506;-41
2023/12/23 02:49:30;;;;;;;6.53;1.47;;;;;;;1.16;100.00;99573.84;7389987;19;20780;-37
2023/12/23 02:52:02;;;;;;;10.33;1.63;;;;;;;1.17;100.00;99573.94;7370471;19;20427;-38
2023/12/23 02:54:32;;;;;;;7.60;1.87;;;;;;;1.32;100.00;99573.09;7397502;19;20773;-37
2023/12/23 02:57:01;;;;;;;14.00;2.30;;;;;;;1.37;100.00;99566.63;7369513;19;20423;-37
2023/12/23 02:59:31;;;;;;;38.20;9.23;;;;;;;1.47;100.00;99563.84;7393732;19;20518;-37
2023/12/23 03:02:00;;;;;;;5.60;1.23;;;;;;;1.42;100.00;99570.31;7368629;19;20432;-37
2023/12/23 03:04:32;;;;;;;55.33;14.10;;;;;;;1.45;100.00;99565.41;7394785;19;20387;-37
2023/12/23 03:07:05;;;;;;;15.83;6.00;;;;;;;1.43;100.00;99567.00;7369804;19;20419;-38
2023/12/23 03:09:35;;;;;;;13.30;2.47;;;;;;;1.46;100.00;99572.28;7394963;19;20434;-36
2023/12/23 03:12:04;;;;;;;24.97;4.90;;;;;;;1.50;100.00;99577.53;7370333;19;20427;-36
2023/12/23 03:14:34;;;;;;;12.53;1.37;;;;;;;1.31;100.00;99584.94;7395208;19;20411;-36
2023/12/23 03:17:04;;;;;;;3.30;0.80;;;;;;;1.21;100.00;99570.81;7369666;19;20403;-37
2023/12/23 03:19:33;;;;;;;11.33;3.03;;;;;;;1.17;100.00;99561.22;7394937;19;20430;-37
2023/12/23 03:22:06;;;;;;;8.87;1.20;;;;;;;1.16;100.00;99550.97;7369771;19;20415;-37
2023/12/23 03:24:35;;;;;;;13.90;1.53;;;;;;;1.13;100.00;99546.56;7394570;19;20425;-37
2023/12/23 03:27:05;;;;;;;10.73;1.23;;;;;;;1.16;100.00;99535.72;7371763;19;20439;-37
2023/12/23 03:29:35;;;;;;;7.13;1.37;;;;;;;1.26;100.00;99521.91;7395066;19;20430;-37
2023/12/23 03:32:05;;;;;;;3.83;1.10;;;;;;;1.25;100.00;99520.16;7369456;19;20427;-36
2023/12/23 03:34:35;;;;;;;21.50;5.67;;;;;;;1.35;100.00;99512.28;7394549;19;20399;-37
2023/12/23 03:37:07;;;;;;;7.13;1.40;;;;;;;1.28;100.00;99510.19;7368787;19;20403;-36
2023/12/23 03:39:37;;;;;;;8.17;1.90;;;;;;;1.38;100.00;99497.19;7394570;19;20443;-38
2023/12/23 03:42:07;;;;;;;16.80;2.60;;;;;;;1.42;100.00;99493.16;7367745;19;20430;-37
2023/12/23 03:44:36;;;;;;;13.87;2.70;;;;;;;1.53;100.00;99506.53;7394224;19;20406;-38
2023/12/23 03:47:07;;;;;;;10.33;1.90;;;;;;;1.56;100.00;99501.59;7367328;19;20406;-39
2023/12/23 03:49:37;;;;;;;9.97;1.50;;;;;;;1.70;100.00;99502.41;7393620;19;20435;-41
2023/12/23 03:52:09;;;;;;;9.53;2.00;;;;;;;1.85;100.00;99510.03;7368785;19;20462;-37
2023/12/23 03:54:39;;;;;;;9.03;2.90;;;;;;;1.85;100.00;99522.75;7393447;19;20387;-37
2023/12/23 03:57:08;;;;;;;5.00;0.70;;;;;;;1.87;100.00;99534.78;7368229;19;21481;-37
2023/12/23 03:59:35;;;;;;;5.73;1.00;;;;;;;1.87;100.00;99552.59;7393855;19;20448;-39
2023/12/23 04:02:05;;;;;;;12.30;1.17;;;;;;;1.95;100.00;99558.09;7368602;19;20462;-36
2023/12/23 04:04:35;;;;;;;5.53;0.60;;;;;;;1.97;100.00;99587.06;7394328;19;20777;-37
2023/12/23 04:07:05;;;;;;;15.73;3.00;;;;;;;1.96;100.00;99575.13;7368509;19;20442;-36
2023/12/23 04:09:37;;;;;;;5.33;0.80;;;;;;;1.79;100.00;99586.00;7393300;19;20451;-36
2023/12/23 04:12:08;;;;;;;6.43;1.60;;;;;;;1.68;100.00;99577.72;7371450;19;20514;-38
2023/12/23 04:14:37;;;;;;;11.63;0.87;;;;;;;1.52;100.00;99550.50;7399808;19;20955;-37
2023/12/23 04:17:06;;;;;;;4.23;1.00;;;;;;;1.41;100.00;99545.69;7375716;19;20420;-41
2023/12/23 04:19:36;;;;;;;7.83;0.83;;;;;;;1.37;100.00;99540.34;7399827;19;20443;-37
2023/12/23 04:22:06;;;;;;;2.80;0.80;;;;;;;1.37;100.00;99525.97;7376019;19;20954;-40
2023/12/23 04:24:38;;;;;;;10.50;1.20;;;;;;;1.28;100.00;99512.72;7395345;19;20476;-38
2023/12/23 04:27:08;;;;;;;5.47;1.23;;;;;;;1.28;100.00;99494.94;7374368;19;20430;-38
2023/12/23 04:29:37;;;;;;;14.87;4.13;;;;;;;1.24;100.00;99487.91;7396204;19;20418;-38
2023/12/23 04:32:07;;;;;;;6.67;1.23;;;;;;;1.11;100.00;99492.25;7373737;19;20435;-37
2023/12/23 04:34:37;;;;;;;6.20;1.63;;;;;;;1.15;100.00;99463.72;7395288;19;20418;-40
2023/12/23 04:37:07;;;;;;;38.23;10.73;;;;;;;1.17;100.00;99472.28;7373085;19;20766;-39
2023/12/23 04:39:39;;;;;;;9.97;3.80;;;;;;;1.18;100.00;99474.03;7395819;19;20439;-40
2023/12/23 04:42:09;;;;;;;12.40;3.60;;;;;;;1.19;100.00;99474.94;7372922;19;20458;-37
2023/12/23 04:44:38;;;;;;;3.53;1.00;;;;;;;1.15;100.00;99448.47;7395591;19;20442;-42
2023/12/23 04:47:08;;;;;;;6.63;1.70;;;;;;;1.13;100.00;99447.47;7371498;19;20399;-37
2023/12/23 04:49:37;;;;;;;6.10;1.43;;;;;;;1.13;100.00;99433.91;7395370;19;20474;-37
2023/12/23 04:52:07;;;;;;;19.80;5.37;;;;;;;1.14;100.00;99428.94;7372977;19;20399;-36
2023/12/23 04:54:39;;;;;;;11.83;3.83;;;;;;;1.27;100.00;99427.09;7394847;19;20384;-37
2023/12/23 04:57:09;;;;;;;8.90;1.53;;;;;;;1.36;100.00;99430.16;7372341;19;20418;-37
2023/12/23 04:59:39;;;;;;;7.63;1.17;;;;;;;1.41;100.00;99421.13;7399113;19;20986;-37
2023/12/23 05:02:08;;;;;;;11.40;1.70;;;;;;;1.44;100.00;99416.22;7374603;19;21047;-37
2023/12/23 05:04:38;;;;;;;3.47;1.10;;;;;;;1.50;100.00;99432.59;7395942;19;20955;-38
2023/12/23 05:07:07;;;;;;;5.07;1.90;;;;;;;1.54;100.00;99417.59;7372092;19;20423;-39
2023/12/23 05:09:39;;;;;;;11.63;3.20;;;;;;;1.50;100.00;99424.97;7395137;19;20425;-37
2023/12/23 05:12:10;;;;;;;7.70;0.83;;;;;;;1.38;100.00;99451.44;7372785;19;20441;-37
2023/12/23 05:14:39;;;;;;;3.80;1.10;;;;;;;1.40;100.00;99439.72;7398749;19;20470;-39
2023/12/23 05:17:09;;;;;;;10.73;2.23;;;;;;;1.47;100.00;99446.03;7371679;19;20911;-37
2023/12/23 05:19:41;;;;;;;9.23;0.73;;;;;;;1.50;100.00;99442.78;7394356;19;20423;-42
2023/12/23 05:22:11;;;;;;;4.80;1.07;;;;;;;1.58;100.00;99449.16;7372436;19;20395;-41
2023/12/23 05:24:47;;;;;;;3.63;1.00;;;;;;;1.53;100.00;99441.28;7393561;19;20423;-37
2023/12/23 05:27:16;;;;;;;6.73;2.30;;;;;;;1.53;100.00;99450.59;7372073;19;20524;-39
2023/12/23 05:29:46;;;;;;;1.30;0.40;;;;;;;1.45;100.00;99455.22;7393861;19;20498;-40
2023/12/23 05:32:15;;;;;;;2.27;0.90;;;;;;;1.63;100.00;99447.78;7373077;19;20399;-39
2023/12/23 05:34:47;;;;;;;5.40;1.50;;;;;;;1.61;100.00;99462.06;7394489;19;20406;-37
2023/12/23 05:37:17;;;;;;;1.40;0.40;;;;;;;1.64;100.00;99448.66;7371369;19;20399;-37
2023/12/23 05:39:49;;;;;;;6.63;1.20;;;;;;;1.66;100.00;99447.97;7393779;19;20861;-37
2023/12/23 05:42:19;;;;;;;5.83;0.87;;;;;;;1.58;100.00;99447.50;7371795;19;20522;-36
2023/12/23 05:44:49;;;;;;;6.27;1.90;;;;;;;1.56;100.00;99445.66;7393666;19;20784;-37
2023/12/23 05:47:18;;;;;;;4.87;0.97;;;;;;;1.40;100.00;99434.63;7368886;19;20449;-39
2023/12/23 05:49:48;;;;;;;5.40;0.80;;;;;;;1.35;100.00;99430.97;7393793;19;20416;-38
2023/12/23 05:52:18;;;;;;;8.10;1.07;;;;;;;1.25;100.00;99429.56;7371188;19;20403;-37
2023/12/23 05:54:50;;;;;;;3.00;0.80;;;;;;;1.21;100.00;99408.16;7395853;19;20769;-38
2023/12/23 05:57:20;;;;;;;2.93;0.80;;;;;;;1.20;100.00;99406.41;7371036;19;20405;-36
2023/12/23 05:59:49;;;;;;;13.63;4.07;;;;;;;1.24;100.00;99396.41;7393819;19;20430;-36
2023/12/23 06:02:19;;;;;;;37.13;9.77;;;;;;;1.15;100.00;99384.94;7370879;19;20405;-37
2023/12/23 06:04:49;;;;;;;11.63;2.10;;;;;;;1.16;100.00;99385.81;7395933;19;20777;-38
2023/12/23 06:07:18;;;;;;;10.30;2.57;;;;;;;1.12;100.00;99392.38;7369856;19;20481;-39
2023/12/23 06:09:50;;;;;;;11.37;2.43;;;;;;;1.12;100.00;99384.75;7392967;19;20480;-37
2023/12/23 06:12:20;;;;;;;4.43;0.80;;;;;;;1.14;100.00;99390.81;7371191;19;20392;-37
2023/12/23 06:14:50;;;;;;;3.10;1.07;;;;;;;1.13;100.00;99393.25;7394548;19;20383;-36
2023/12/23 06:17:20;;;;;;;5.60;1.30;;;;;;;1.12;100.00;99397.47;7370285;19;20931;-36
2023/12/23 06:19:49;;;;;;;8.60;1.40;;;;;;;1.05;100.00;99410.59;7393178;19;20427;-36
2023/12/23 06:22:19;;;;;;;15.77;5.20;;;;;;;1.07;100.00;99414.09;7374561;19;20437;-36
2023/12/23 06:24:51;;;;;;;7.87;1.50;;;;;;;0.80;100.00;99417.66;7392399;19;20800;-37
2023/12/23 06:27:21;;;;;;;15.00;2.10;;;;;;;0.76;100.00;99412.28;7370037;19;20403;-36
2023/12/23 06:29:50;;;;;;;3.33;1.10;;;;;;;0.49;100.00;99408.22;7392500;19;20594;-37
2023/12/23 06:32:20;;;;;;;5.15;1.65;;;;;;;0.41;100.00;99396.69;7372806;19;20438;-39
2023/12/23 06:34:50;;;;;;;8.23;1.50;;;;;;;0.44;100.00;99388.38;7392432;19;20135;-36
2023/12/23 06:37:19;;;;;;;7.10;1.40;;;;;;;0.33;100.00;99387.75;7370327;19;21005;-36
2023/12/23 06:39:52;;;;;;;13.20;3.83;;;;;;;0.28;100.00;99384.03;7392013;19;20432;-36
2023/12/23 06:42:21;;;;;;;4.80;1.75;;;;;;;0.18;100.00;99386.03;7369874;19;21147;-38
2023/12/23 06:44:51;;;;;;;7.50;1.27;;;;;;;0.13;100.00;99390.84;7392254;19;20139;-37
2023/12/23 06:47:21;;;;;;;6.95;0.73;;;;;;;0.09;100.00;99390.53;7367831;19;20399;-36
2023/12/23 06:49:50;;;;;;;8.73;1.73;;;;;;;0.21;100.00;99390.41;7392382;19;20163;-38
2023/12/23 06:52:20;;;;;;;6.37;0.77;;;;;;;0.01;100.00;99392.63;7370180;19;20430;-36
2023/12/23 06:54:52;;;;;;;6.67;0.97;;;;;;;-0.05;100.00;99388.00;7393804;19;20934;-36
2023/12/23 06:57:22;;;;;;;6.50;1.25;;;;;;;0.08;100.00;99393.84;7368502;19;20427;-37
2023/12/23 06:59:52;;;;;;;5.13;1.73;;;;;;;0.01;100.00;99392.63;7391388;19;20171;-37
2023/12/23 07:02:21;;;;;;;9.52;3.10;;;;;;;0.15;100.00;99435.72;7369154;19;20403;-38
2023/12/23 07:04:51;;;;;;;5.60;1.40;;;;;;;-0.07;100.00;99500.28;7391654;19;20134;-37
2023/12/23 07:07:20;;;;;;;43.15;13.15;;;;;;;0.44;100.00;99540.66;7368127;19;20386;-37
2023/12/23 07:09:53;;;;;;;30.92;10.85;;;;;;;0.29;100.00;99551.63;7390954;19;20174;-37
2023/12/23 07:12:33;;;;;;;6.97;1.77;;;;;;;0.03;100.00;99563.50;7370079;19;20224;-36
2023/12/23 07:15:06;;;;;;;19.50;6.88;;;;;;;0.07;100.00;99569.66;7392813;19;20518;-37
2023/12/23 07:17:36;;;;;;;4.83;0.90;;;;;;;-0.18;100.00;99568.06;7368361;19;20961;-36
2023/12/23 07:20:11;;;;;;;2.67;1.40;;;;;;;-0.23;100.00;99580.44;7391260;19;20426;-36
2023/12/23 07:22:41;;;;;;;2.00;1.25;;;;;;;-0.22;100.00;99601.59;7368769;19;20535;-37
2023/12/23 07:25:13;;;;;;;6.10;1.93;;;;;;;-0.22;100.00;99617.69;7391121;19;20139;-37
2023/12/23 07:27:43;;;;;;;23.85;8.95;;;;;;;-0.09;100.00;99618.50;7368184;19;20461;-37
2023/12/23 07:30:14;;;;;;;36.08;11.88;;;;;;;-0.11;100.00;99653.91;7390537;19;20163;-37
2023/12/23 07:32:44;;;;;;;2.45;1.08;;;;;;;-0.27;100.00;99659.59;7372517;19;20666;-36
2023/12/23 07:35:14;;;;;;;2.80;1.23;;;;;;;-0.31;100.00;99668.66;7392558;19;20194;-36
2023/12/23 07:37:44;;;;;;;5.35;1.40;;;;;;;-0.40;100.00;99673.13;7367896;19;20591;-37
2023/12/23 07:40:17;;;;;;;3.72;1.15;;;;;;;-0.45;100.00;99680.38;7390483;19;20166;-35
2023/12/23 07:42:47;;;;;;;3.35;1.50;;;;;;;-0.44;100.00;99689.78;7369769;19;20265;-36
2023/12/23 07:45:17;;;;;;;35.45;10.02;;;;;;;-0.20;100.00;99692.19;7390722;19;20138;-37
2023/12/23 07:47:47;;;;;;;13.05;3.22;;;;;;;-0.29;100.00;99699.19;7364848;19;20273;-37
2023/12/23 07:50:17;;;;;;;6.13;2.03;;;;;;;-0.42;100.00;99700.88;7390282;19;20135;-38
2023/12/23 07:52:46;;;;;;;2.03;0.80;;;;;;;-0.46;100.00;99709.03;7367476;19;20277;-36
2023/12/23 07:55:19;;;;;;;31.85;10.25;;;;;;;-0.17;100.00;99722.84;7390771;19;20163;-36
2023/12/23 07:57:49;;;;;;;3.67;1.65;;;;;;;-0.15;100.00;99731.44;7367325;19;20197;-36
2023/12/23 08:00:19;;;;;;;8.85;2.10;;;;;;;-0.45;100.00;99736.16;7390054;19;20202;-36
2023/12/23 08:02:49;;;;;;;12.60;4.63;;;;;;;-0.44;100.00;99743.00;7369053;19;20208;-37
2023/12/23 08:05:20;;;;;;;13.93;5.00;;;;;;;-0.48;100.00;99748.63;7391429;19;20141;-35
2023/12/23 08:07:50;;;;;;;7.05;2.53;;;;;;;-0.36;100.00;99753.66;7364850;19;20655;-36
2023/12/23 08:10:22;;;;;;;4.07;1.80;;;;;;;-0.32;100.00;99759.81;7390174;19;20135;-36
2023/12/23 08:12:52;;;;;;;2.20;1.42;;;;;;;-0.53;100.00;99762.63;7367440;19;20204;-36
2023/12/23 08:15:22;;;;;;;14.88;2.10;;;;;;;-0.52;100.00;99769.44;7389629;19;20135;-36
2023/12/23 08:17:52;;;;;;;6.72;1.90;;;;;;;-0.37;100.00;99768.78;7368295;19;20198;-36
2023/12/23 08:20:22;;;;;;;17.25;4.53;;;;;;;-0.39;100.00;99775.38;7389089;19;20135;-36
2023/12/23 08:22:52;;;;;;;3.40;1.20;;;;;;;-0.42;100.00;99787.06;7366639;19;20681;-36
2023/12/23 08:25:25;;;;;;;3.25;1.30;;;;;;;-0.47;100.00;99780.78;7389476;19;20134;-36
2023/12/23 08:27:55;;;;;;;12.55;4.60;;;;;;;-0.32;100.00;99787.69;7365075;19;20186;-38
2023/12/23 08:30:24;;;;;;;3.40;1.60;;;;;;;-0.42;100.00;99786.19;7389146;19;20135;-35
2023/12/23 08:32:54;;;;;;;11.95;3.88;;;;;;;-0.38;100.00;99787.25;7367549;19;20698;-37
2023/12/23 08:35:24;;;;;;;2.20;0.90;;;;;;;-0.43;100.00;99800.53;7388887;19;20139;-36
2023/12/23 08:37:54;;;;;;;4.05;1.52;;;;;;;-0.46;100.00;99801.97;7366892;19;20653;-36
2023/12/23 08:40:26;;;;;;;12.45;4.57;;;;;;;-0.44;100.00;99808.00;7388635;19;20131;-37
2023/12/23 08:42:56;;;;;;;5.60;1.27;;;;;;;-0.44;100.00;99821.56;7364834;19;20265;-37
2023/12/23 08:45:26;;;;;;;3.97;1.50;;;;;;;-0.46;100.00;99825.63;7386776;19;20150;-36
2023/12/23 08:47:55;;;;;;;3.30;1.30;;;;;;;-0.40;100.00;99835.34;7367083;19;20553;-37
2023/12/23 08:50:25;;;;;;;2.40;1.00;;;;;;;-0.47;100.00;99841.63;7391098;19;20515;-35
2023/12/23 08:52:55;;;;;;;3.38;1.35;;;;;;;-0.51;100.00;99849.78;7369359;19;20849;-36
2023/12/23 08:55:27;;;;;;;3.78;1.27;;;;;;;-0.56;100.00;99853.66;7390494;19;20147;-39
2023/12/23 08:57:58;;;;;;;3.60;1.30;;;;;;;-0.66;100.00;99848.69;7366973;19;20182;-39
2023/12/23 09:00:27;;;;;;;19.83;7.57;;;;;;;-0.70;100.00;99851.00;7389556;19;20167;-37
2023/12/23 09:02:57;;;;;;;6.18;2.30;;;;;;;-0.61;100.00;99873.56;7397008;19;20142;-36
2023/12/23 09:05:27;;;;;;;3.15;1.17;;;;;;;-0.65;100.00;99878.31;7392495;19;20483;-34
2023/12/23 09:07:57;;;;;;;4.68;1.60;;;;;;;-0.59;100.00;99879.66;7393564;19;20149;-35
2023/12/23 09:10:29;;;;;;;27.40;8.15;;;;;;;-0.47;100.00;99874.56;7391319;19;20627;-36
2023/12/23 09:12:59;;;;;;;5.15;1.35;;;;;;;-0.54;100.00;99892.66;7376999;19;20201;-36
2023/12/23 09:15:28;;;;;;;2.30;1.13;;;;;;;-0.46;100.00;99906.75;7369479;19;20652;-36
2023/12/23 09:17:58;;;;;;;7.70;2.30;;;;;;;-0.39;100.00;99910.63;7397573;19;20147;-36
2023/12/23 09:20:28;;;;;;;4.63;1.60;;;;;;;-0.45;100.00;99917.78;7387005;19;20134;-37
2023/12/23 09:22:58;;;;;;;9.30;3.13;;;;;;;-0.43;100.00;99929.78;7396531;19;20506;-36
2023/12/23 09:25:30;;;;;;;12.10;4.20;;;;;;;-0.37;100.00;99925.94;7388491;19;20175;-34
2023/12/23 09:28:00;;;;;;;4.63;2.35;;;;;;;-0.40;100.00;99931.69;7393894;19;20230;-36
2023/12/23 09:30:29;;;;;;;4.22;2.15;;;;;;;-0.26;100.00;99940.25;7371358;19;20612;-35
2023/12/23 09:32:59;;;;;;;5.28;2.40;;;;;;;-0.25;100.00;99944.59;7392329;19;20131;-35
2023/12/23 09:35:29;;;;;;;9.95;3.67;;;;;;;-0.20;100.00;99935.63;7374808;19;20175;-36
2023/12/23 09:37:59;;;;;;;5.20;2.10;;;;;;;-0.24;100.00;99942.91;7392945;19;20147;-36
2023/12/23 09:40:31;;;;;;;5.45;2.50;;;;;;;-0.24;100.00;99945.44;7381082;19;20210;-35
2023/12/23 09:43:00;;;;;;;4.75;2.30;;;;;;;-0.21;100.00;99951.63;7396152;19;20611;-36
2023/12/23 09:45:30;;;;;;;6.15;2.30;;;;;;;-0.21;100.00;99954.16;7374024;19;20131;-36
2023/12/23 09:48:00;;;;;;;4.18;2.05;;;;;;;-0.21;100.00;99956.69;7392084;19;20143;-37
2023/12/23 09:50:30;;;;;;;4.65;2.33;;;;;;;-0.17;100.00;99956.16;7375798;19;20139;-36
2023/12/23 09:53:01;;;;;;;11.38;3.17;;;;;;;-0.11;100.00;99964.97;7397025;19;20163;-36
2023/12/23 09:55:34;;;;;;;8.13;2.30;;;;;;;-0.02;100.00;99961.44;7374153;19;20143;-37
2023/12/23 09:58:03;;;;;;;8.00;2.50;;;;;;;0.08;100.00;99965.50;7394411;19;20139;-37
2023/12/23 10:00:33;;;;;;;5.68;2.00;;;;;;;0.17;100.00;99957.69;7375031;19;20139;-38
2023/12/23 10:03:07;;;;;;;5.03;2.50;;;;;;;0.21;100.00;99959.63;7396255;19;20750;-36
2023/12/23 10:05:43;;;;;;;6.77;2.77;;;;;;;0.25;100.00;99960.72;7368445;19;20163;-36
2023/12/23 10:08:13;;;;;;;7.20;2.53;;;;;;;0.32;100.00;99951.91;7390639;19;20548;-37
2023/12/23 10:10:46;;;;;;;7.40;2.27;;;;;;;0.22;100.00;99950.38;7373927;19;20431;-37
2023/12/23 10:13:16;;;;;;;6.67;2.73;;;;;;;0.20;100.00;99944.31;7396880;19;20413;-36
2023/12/23 10:15:45;;;;;;;15.70;6.45;;;;;;;0.25;100.00;99945.50;7371251;19;20396;-36
2023/12/23 10:18:15;;;;;;;33.63;10.30;;;;;;;0.30;100.00;99956.88;7391552;19;20189;-38
2023/12/23 10:20:45;;;;;;;12.33;4.50;;;;;;;0.34;100.00;99945.25;7373662;19;21988;-38
2023/12/23 10:23:15;;;;;;;13.23;4.00;;;;;;;0.39;100.00;99947.38;7394867;19;20827;-40
2023/12/23 10:25:47;;;;;;;7.07;2.80;;;;;;;0.30;100.00;99946.72;7373913;19;20168;-35
2023/12/23 10:28:18;;;;;;;7.47;3.22;;;;;;;0.37;100.00;99948.91;7390959;19;20429;-38
2023/12/23 10:30:50;;;;;;;6.47;2.47;;;;;;;0.40;100.00;99956.75;7370800;19;20211;-37
2023/12/23 10:33:20;;;;;;;8.30;3.33;;;;;;;0.45;100.00;99953.66;7391061;19;20400;-36
2023/12/23 10:35:50;;;;;;;6.35;2.95;;;;;;;0.43;100.00;99955.19;7370097;19;20202;-36
2023/12/23 10:38:22;;;;;;;6.60;2.50;;;;;;;0.55;100.00;99957.72;7391854;19;20189;-36
2023/12/23 10:40:58;;;;;;;26.70;9.10;;;;;;;0.66;100.00;99952.59;7370110;19;20402;-38
2023/12/23 10:43:28;;;;;;;7.20;3.00;;;;;;;0.66;100.00;99955.13;7391258;19;20387;-37
2023/12/23 10:45:58;;;;;;;12.47;5.23;;;;;;;0.76;100.00;99953.19;7371233;19;20438;-40
2023/12/23 10:48:28;;;;;;;19.50;6.00;;;;;;;0.81;100.00;99959.47;7390424;19;20443;-37
2023/12/23 10:50:58;;;;;;;10.50;3.90;;;;;;;0.87;100.00;99953.94;7369602;19;20986;-38
2023/12/23 10:53:30;;;;;;;10.57;3.07;;;;;;;0.87;100.00;99951.41;7392862;19;20394;-39
2023/12/23 10:56:02;;;;;;;6.87;3.07;;;;;;;0.92;100.00;99945.00;7369044;19;20408;-37
2023/12/23 10:58:32;;;;;;;6.70;3.63;;;;;;;0.99;100.00;99938.66;7390094;19;20419;-37
2023/12/23 11:01:02;;;;;;;11.77;3.83;;;;;;;1.08;100.00;99949.44;7369548;19;20399;-37
2023/12/23 11:03:33;;;;;;;30.27;9.33;;;;;;;1.03;100.00;99936.41;7390118;19;20953;-38
2023/12/23 11:06:03;;;;;;;7.27;3.27;;;;;;;1.08;100.00;99935.06;7368303;19;20399;-41
2023/12/23 11:08:34;;;;;;;16.00;5.37;;;;;;;1.11;100.00;99929.31;7394450;19;20451;-39
2023/12/23 11:11:06;;;;;;;8.23;3.57;;;;;;;1.15;100.00;99926.19;7370990;19;20381;-37
2023/12/23 11:13:36;;;;;;;8.60;3.20;;;;;;;1.15;100.00;99926.19;7394031;19;20400;-37
2023/12/23 11:16:10;;;;;;;8.43;3.30;;;;;;;1.14;100.00;99919.34;7369559;19;20505;-37
2023/12/23 11:18:42;;;;;;;12.40;3.80;;;;;;;1.12;100.00;99920.88;7393195;19;20466;-37
2023/12/23 11:21:16;;;;;;;7.50;3.77;;;;;;;1.18;100.00;99921.31;7369048;19;20399;-37
2023/12/23 11:23:46;;;;;;;6.70;3.43;;;;;;;1.20;100.00;99929.94;7390164;19;20416;-38
2023/12/23 11:26:51;;;;;;;5.40;2.70;;;;;;;1.16;100.00;99912.69;7369011;19;20391;-38
2023/12/23 11:29:22;;;;;;;7.83;3.23;;;;;;;1.21;100.00;99929.13;7389361;19;20443;-36
2023/12/23 11:31:52;;;;;;;7.57;3.77;;;;;;;1.29;100.00;99934.69;7367950;19;20427;-37
2023/12/23 11:34:22;;;;;;;9.27;2.70;;;;;;;1.34;100.00;99935.03;7392768;19;20999;-35
2023/12/23 11:36:53;;;;;;;7.00;3.30;;;;;;;1.32;100.00;99949.28;7368439;19;20466;-34
2023/12/23 11:39:23;;;;;;;5.53;2.87;;;;;;;1.34;100.00;99948.59;7391984;19;20443;-35
2023/12/23 11:41:55;;;;;;;7.57;3.47;;;;;;;1.43;100.00;99957.63;7366255;19;20430;-35
2023/12/23 11:44:25;;;;;;;8.40;2.17;;;;;;;1.48;100.00;99967.31;7390229;19;20799;-34